ěÝzenÝ letovÚho provozu ╚eskÚ republiky
Letiste: LKCV Aktualizace: 21.09.2021 03:58:27  UTC
 METAR LKCV 21.09. 04:00 ...
METAR LKCV 210400Z 00000KT CAVOK 10/09 Q1025 NOSIG RMK BLU BLU=
 TAF LKCV 20.09. 23:00 ...
TAF LKCV 202300Z 2100/2200 VRB02KT CAVOK      PROB30 TEMPO 2102/2108 BKN020      TEMPO 2109/2116 BKN035      BECMG 2110/2112 32007KT=